Time;durP1;ratioP1;P1;durP2;ratioP2;P2;SDS_P1;SDS_P2;PMS_P1;PMS_P2;Temp;Humidity;BMP_temperature;BMP_pressure;BME280_temperature;BME280_humidity;BME280_pressure;Samples;Min_cycle;Max_cycle;Signal;HPM_P1;HPM_P2
2023/07/23 00:00:51;;;;;;;14.03;12.17;;;;;;;;;;5074613;28;20267;-59
2023/07/23 00:03:17;;;;;;;15.10;13.47;;;;;;;;;;5074476;28;20231;-58
2023/07/23 00:05:44;;;;;;;14.37;12.83;;;;;;;;;;5074393;28;20298;-58
2023/07/23 00:08:10;;;;;;;13.47;12.13;;;;;;;;;;5074746;28;20212;-58
2023/07/23 00:10:36;;;;;;;12.90;11.60;;;;;;;;;;5074445;28;20200;-58
2023/07/23 00:13:02;;;;;;;16.47;13.03;;;;;;;;;;5074510;28;20195;-57
2023/07/23 00:15:30;;;;;;;14.03;12.63;;;;;;;;;;5074416;28;20192;-57
2023/07/23 00:17:58;;;;;;;13.97;11.93;;;;;;;;;;5074546;28;20291;-57
2023/07/23 00:20:24;;;;;;;13.93;12.53;;;;;;;;;;5074592;28;20278;-57
2023/07/23 00:22:50;;;;;;;13.80;12.40;;;;;;;;;;5074254;28;20227;-57
2023/07/23 00:25:16;;;;;;;13.33;12.03;;;;;;;;;;5074288;28;20515;-56
2023/07/23 00:27:42;;;;;;;15.53;13.67;;;;;;;;;;5074231;28;20262;-57
2023/07/23 00:30:08;;;;;;;16.80;13.80;;;;;;;;;;5074185;28;20215;-57
2023/07/23 00:32:35;;;;;;;17.37;14.73;;;;;;;;;;5073999;28;20245;-57
2023/07/23 00:35:02;;;;;;;17.77;13.97;;;;;;;;;;5072565;28;20685;-57
2023/07/23 00:37:28;;;;;;;15.57;13.97;;;;;;;;;;5074119;28;20199;-57
2023/07/23 00:39:54;;;;;;;16.07;13.73;;;;;;;;;;5072747;28;20196;-57
2023/07/23 00:42:20;;;;;;;16.27;14.40;;;;;;;;;;5073968;28;20199;-57
2023/07/23 00:44:46;;;;;;;15.40;13.47;;;;;;;;;;5073676;28;20234;-56
2023/07/23 00:47:13;;;;;;;17.23;14.17;;;;;;;;;;5073831;28;20203;-57
2023/07/23 00:49:41;;;;;;;17.70;14.60;;;;;;;;;;5073913;28;20200;-57
2023/07/23 00:52:07;;;;;;;17.00;15.17;;;;;;;;;;5074110;28;20207;-57
2023/07/23 00:54:33;;;;;;;14.63;13.13;;;;;;;;;;5073701;28;20215;-57
2023/07/23 00:57:02;;;;;;;15.40;13.80;;;;;;;;;;5073594;28;20661;-57
2023/07/23 00:59:30;;;;;;;15.10;13.50;;;;;;;;;;5073579;28;20196;-57
2023/07/23 01:01:57;;;;;;;15.43;13.13;;;;;;;;;;5073561;28;20230;-57
2023/07/23 01:04:23;;;;;;;13.27;11.87;;;;;;;;;;5073542;28;20227;-57
2023/07/23 01:06:51;;;;;;;13.00;11.70;;;;;;;;;;5073425;28;20196;-57
2023/07/23 01:09:18;;;;;;;11.50;10.30;;;;;;;;;;5073458;28;20204;-58
2023/07/23 01:11:45;;;;;;;12.30;11.03;;;;;;;;;;5073337;28;20204;-57
2023/07/23 01:14:11;;;;;;;11.60;10.43;;;;;;;;;;5073499;28;20226;-57
2023/07/23 01:16:37;;;;;;;12.57;10.33;;;;;;;;;;5073212;28;20202;-57
2023/07/23 01:19:03;;;;;;;11.23;10.07;;;;;;;;;;5073307;28;20608;-57
2023/07/23 01:21:29;;;;;;;10.57;9.50;;;;;;;;;;5073188;28;20223;-57
2023/07/23 01:23:57;;;;;;;10.37;9.37;;;;;;;;;;5073165;28;20290;-57
2023/07/23 01:26:23;;;;;;;11.73;9.40;;;;;;;;;;5073461;28;20204;-57
2023/07/23 01:28:49;;;;;;;14.10;10.20;;;;;;;;;;5072984;28;20198;-57
2023/07/23 01:31:15;;;;;;;10.23;9.10;;;;;;;;;;5072857;28;20206;-57
2023/07/23 01:33:41;;;;;;;15.13;10.23;;;;;;;;;;5072975;28;20196;-58
2023/07/23 01:36:07;;;;;;;11.03;9.87;;;;;;;;;;5073108;28;20237;-57
2023/07/23 01:38:33;;;;;;;10.73;9.63;;;;;;;;;;5072805;28;20265;-57
2023/07/23 01:41:01;;;;;;;11.43;10.23;;;;;;;;;;5073024;28;20195;-57
2023/07/23 01:43:27;;;;;;;10.53;9.53;;;;;;;;;;5072654;28;20239;-57
2023/07/23 01:45:54;;;;;;;10.63;9.53;;;;;;;;;;5072431;28;20219;-58
2023/07/23 01:48:21;;;;;;;11.97;9.73;;;;;;;;;;5072456;28;20282;-58
2023/07/23 01:50:47;;;;;;;10.40;9.00;;;;;;;;;;5072254;28;20208;-57
2023/07/23 01:53:13;;;;;;;9.70;8.70;;;;;;;;;;5072443;28;20526;-58
2023/07/23 01:55:39;;;;;;;10.27;9.23;;;;;;;;;;5072493;28;20660;-58
2023/07/23 01:58:07;;;;;;;9.27;8.30;;;;;;;;;;5072533;28;20542;-57
2023/07/23 02:00:33;;;;;;;9.60;8.20;;;;;;;;;;5072389;28;20199;-57
2023/07/23 02:02:59;;;;;;;10.47;8.93;;;;;;;;;;5072193;28;20281;-57
2023/07/23 02:05:25;;;;;;;9.10;8.20;;;;;;;;;;5072366;28;20258;-57
2023/07/23 02:07:51;;;;;;;9.50;8.50;;;;;;;;;;5072285;28;20219;-58
2023/07/23 02:10:18;;;;;;;9.83;8.83;;;;;;;;;;5072282;28;20277;-58
2023/07/23 02:12:44;;;;;;;11.67;8.67;;;;;;;;;;5072089;28;20257;-58
2023/07/23 02:15:11;;;;;;;10.40;8.10;;;;;;;;;;5072184;28;20565;-58
2023/07/23 02:17:37;;;;;;;10.80;8.20;;;;;;;;;;5072064;28;20203;-57
2023/07/23 02:20:05;;;;;;;9.13;8.10;;;;;;;;;;5072146;28;20720;-57
2023/07/23 02:22:31;;;;;;;11.97;8.87;;;;;;;;;;5071913;28;20693;-57
2023/07/23 02:24:57;;;;;;;9.87;7.87;;;;;;;;;;5071819;28;20705;-58
2023/07/23 02:27:23;;;;;;;9.87;8.63;;;;;;;;;;5072129;28;20196;-57
2023/07/23 02:29:49;;;;;;;11.17;8.57;;;;;;;;;;5071792;28;20195;-57
2023/07/23 02:32:17;;;;;;;10.17;8.87;;;;;;;;;;5071837;28;20218;-57
2023/07/23 02:34:43;;;;;;;9.30;8.30;;;;;;;;;;5071703;28;20613;-57
2023/07/23 02:37:09;;;;;;;9.40;7.30;;;;;;;;;;5071984;28;20294;-57
2023/07/23 02:39:35;;;;;;;8.97;6.90;;;;;;;;;;5071715;28;20203;-58
2023/07/23 02:42:01;;;;;;;8.43;7.60;;;;;;;;;;5071649;28;20191;-58
2023/07/23 02:44:27;;;;;;;10.30;7.83;;;;;;;;;;5071561;28;20237;-57
2023/07/23 02:46:53;;;;;;;8.90;6.83;;;;;;;;;;5071585;28;20235;-58
2023/07/23 02:49:20;;;;;;;8.80;7.87;;;;;;;;;;5071645;28;20231;-57
2023/07/23 02:51:46;;;;;;;8.67;7.43;;;;;;;;;;5071497;28;20191;-57
2023/07/23 02:54:12;;;;;;;11.53;8.43;;;;;;;;;;5071587;28;20620;-57
2023/07/23 02:56:38;;;;;;;13.33;7.60;;;;;;;;;;5071637;28;20200;-57
2023/07/23 02:59:04;;;;;;;10.73;7.97;;;;;;;;;;5070719;28;20210;-57
2023/07/23 03:01:31;;;;;;;10.63;8.00;;;;;;;;;;5071490;28;20227;-57
2023/07/23 03:03:57;;;;;;;10.40;7.67;;;;;;;;;;5071461;28;20765;-58
2023/07/23 03:06:24;;;;;;;8.63;7.70;;;;;;;;;;5070242;28;20207;-57
2023/07/23 03:08:50;;;;;;;11.77;7.97;;;;;;;;;;5071431;28;20215;-58
2023/07/23 03:11:16;;;;;;;11.10;7.63;;;;;;;;;;5071662;28;20191;-57
2023/07/23 03:13:42;;;;;;;8.30;7.13;;;;;;;;;;5071366;28;20191;-57
2023/07/23 03:16:08;;;;;;;9.40;7.87;;;;;;;;;;5071522;28;20195;-58
2023/07/23 03:18:34;;;;;;;6.70;5.90;;;;;;;;;;5071293;28;20286;-57
2023/07/23 03:21:00;;;;;;;7.80;6.57;;;;;;;;;;5071209;28;20218;-57
2023/07/23 03:23:28;;;;;;;8.53;6.93;;;;;;;;;;5071328;28;20206;-57
2023/07/23 03:25:54;;;;;;;8.03;6.70;;;;;;;;;;5071321;28;20234;-58
2023/07/23 03:28:20;;;;;;;10.93;6.50;;;;;;;;;;5071251;28;20682;-59
2023/07/23 03:30:46;;;;;;;9.50;7.37;;;;;;;;;;5071034;28;20682;-57
2023/07/23 03:33:12;;;;;;;8.77;6.73;;;;;;;;;;5071500;28;20241;-57
2023/07/23 03:35:38;;;;;;;8.97;7.57;;;;;;;;;;5071320;28;20214;-57
2023/07/23 03:38:04;;;;;;;7.77;6.97;;;;;;;;;;5071294;28;20199;-58
2023/07/23 03:40:31;;;;;;;11.67;6.53;;;;;;;;;;5071099;28;20269;-57
2023/07/23 03:42:57;;;;;;;6.63;6.03;;;;;;;;;;5070739;28;20334;-57
2023/07/23 03:45:23;;;;;;;8.53;6.60;;;;;;;;;;5070707;28;20257;-67
2023/07/23 03:47:49;;;;;;;8.37;6.73;;;;;;;;;;5070735;28;20278;-59
2023/07/23 03:50:15;;;;;;;7.67;6.43;;;;;;;;;;5071042;28;20200;-58
2023/07/23 03:52:42;;;;;;;8.30;6.30;;;;;;;;;;5070972;28;20242;-57
2023/07/23 03:55:09;;;;;;;7.97;6.80;;;;;;;;;;5071201;28;20204;-57
2023/07/23 03:57:36;;;;;;;8.83;6.70;;;;;;;;;;5070983;28;20257;-57
2023/07/23 04:00:03;;;;;;;8.73;5.87;;;;;;;;;;5070860;28;20199;-57
2023/07/23 04:02:29;;;;;;;10.87;6.90;;;;;;;;;;5070829;28;20235;-58
2023/07/23 04:04:55;;;;;;;11.10;6.17;;;;;;;;;;5070812;28;20702;-58
2023/07/23 04:07:21;;;;;;;6.17;5.53;;;;;;;;;;5070950;28;20198;-60
2023/07/23 04:09:47;;;;;;;8.60;6.20;;;;;;;;;;5072638;28;20200;-57
2023/07/23 04:12:13;;;;;;;9.73;7.00;;;;;;;;;;5074621;28;20246;-57
2023/07/23 04:14:43;;;;;;;6.80;6.10;;;;;;;;;;5074562;28;20707;-57
2023/07/23 04:17:09;;;;;;;7.70;6.57;;;;;;;;;;5074562;28;20211;-57
2023/07/23 04:19:35;;;;;;;8.83;6.67;;;;;;;;;;5074309;28;20261;-62
2023/07/23 04:22:01;;;;;;;8.50;6.23;;;;;;;;;;5074447;28;20226;-57
2023/07/23 04:24:27;;;;;;;8.13;6.83;;;;;;;;;;5074270;28;20832;-56
2023/07/23 04:26:54;;;;;;;8.37;7.40;;;;;;;;;;5074339;28;20192;-56
2023/07/23 04:29:20;;;;;;;9.63;6.70;;;;;;;;;;5074307;28;20205;-57
2023/07/23 04:31:47;;;;;;;6.73;6.13;;;;;;;;;;5074045;28;20286;-57
2023/07/23 04:34:13;;;;;;;8.20;6.87;;;;;;;;;;5074180;28;20296;-57
2023/07/23 04:36:39;;;;;;;8.60;7.07;;;;;;;;;;5074069;28;20715;-56
2023/07/23 04:39:05;;;;;;;10.10;6.40;;;;;;;;;;5074042;28;20296;-57
2023/07/23 04:41:31;;;;;;;9.23;6.90;;;;;;;;;;5073974;28;20199;-56
2023/07/23 04:43:58;;;;;;;9.17;7.50;;;;;;;;;;5073638;28;20701;-57
2023/07/23 04:46:24;;;;;;;9.70;6.20;;;;;;;;;;5073948;28;20682;-57
2023/07/23 04:48:51;;;;;;;9.23;7.20;;;;;;;;;;5073844;28;20201;-58
2023/07/23 04:51:17;;;;;;;11.57;7.03;;;;;;;;;;5073882;28;20223;-60
2023/07/23 04:53:43;;;;;;;8.37;7.43;;;;;;;;;;5073712;28;20192;-57
2023/07/23 04:56:09;;;;;;;7.37;6.40;;;;;;;;;;5073970;28;20577;-57
2023/07/23 04:58:35;;;;;;;7.50;6.67;;;;;;;;;;5073679;28;20593;-57
2023/07/23 05:01:06;;;;;;;10.07;7.27;;;;;;;;;;5073364;28;20565;-57
2023/07/23 05:03:32;;;;;;;7.50;6.57;;;;;;;;;;5073485;28;20196;-58
2023/07/23 05:06:01;;;;;;;11.23;7.43;;;;;;;;;;5073373;28;20222;-57
2023/07/23 05:08:27;;;;;;;11.47;7.37;;;;;;;;;;5073562;28;20204;-57
2023/07/23 05:10:58;;;;;;;10.60;7.03;;;;;;;;;;5073715;28;20217;-57
2023/07/23 05:13:24;;;;;;;7.67;6.97;;;;;;;;;;5073616;28;20204;-58
2023/07/23 05:15:50;;;;;;;12.70;6.70;;;;;;;;;;5073261;28;20192;-57
2023/07/23 05:18:16;;;;;;;8.63;7.13;;;;;;;;;;5073559;28;20191;-57
2023/07/23 05:20:42;;;;;;;8.90;7.00;;;;;;;;;;5072542;28;20650;-57
2023/07/23 05:23:09;;;;;;;7.63;6.23;;;;;;;;;;5073447;28;20187;-57
2023/07/23 05:25:35;;;;;;;8.43;6.43;;;;;;;;;;5073124;28;20219;-57
2023/07/23 05:28:01;;;;;;;7.97;7.17;;;;;;;;;;5073092;28;20298;-57
2023/07/23 05:30:27;;;;;;;7.77;6.37;;;;;;;;;;5073126;28;20206;-57
2023/07/23 05:32:53;;;;;;;8.17;5.97;;;;;;;;;;5073132;28;20286;-57
2023/07/23 05:35:19;;;;;;;8.47;7.47;;;;;;;;;;5073000;28;20275;-57
2023/07/23 05:37:45;;;;;;;7.87;6.67;;;;;;;;;;5072759;28;20307;-57
2023/07/23 05:40:13;;;;;;;11.37;7.60;;;;;;;;;;5073033;28;20294;-57
2023/07/23 05:42:39;;;;;;;9.90;6.53;;;;;;;;;;5072730;28;20199;-57
2023/07/23 05:45:05;;;;;;;11.63;7.40;;;;;;;;;;5072941;28;20227;-57
2023/07/23 05:47:31;;;;;;;8.10;6.67;;;;;;;;;;5072690;28;20200;-57
2023/07/23 05:49:57;;;;;;;7.90;6.70;;;;;;;;;;5072620;28;20245;-58
2023/07/23 05:52:24;;;;;;;9.77;6.60;;;;;;;;;;5072671;28;20595;-58
2023/07/23 05:54:50;;;;;;;11.87;6.57;;;;;;;;;;5072536;28;20196;-58
2023/07/23 05:57:17;;;;;;;10.10;6.80;;;;;;;;;;5072595;28;20204;-58
2023/07/23 05:59:43;;;;;;;7.13;6.43;;;;;;;;;;5072425;28;20203;-58
2023/07/23 06:02:09;;;;;;;9.53;6.30;;;;;;;;;;5072588;28;20227;-59
2023/07/23 06:04:37;;;;;;;7.47;6.50;;;;;;;;;;5072222;28;20223;-58
2023/07/23 06:07:04;;;;;;;7.67;6.13;;;;;;;;;;5072285;28;20306;-59
2023/07/23 06:09:30;;;;;;;7.50;6.70;;;;;;;;;;5072232;28;20654;-59
2023/07/23 06:11:56;;;;;;;11.37;7.33;;;;;;;;;;5072285;28;20202;-58
2023/07/23 06:14:23;;;;;;;7.53;6.60;;;;;;;;;;5072275;28;20187;-59
2023/07/23 06:16:49;;;;;;;9.10;6.27;;;;;;;;;;5071968;28;20196;-59
2023/07/23 06:19:15;;;;;;;7.23;6.10;;;;;;;;;;5072113;28;20207;-59
2023/07/23 06:21:41;;;;;;;8.23;5.90;;;;;;;;;;5072119;28;20237;-59
2023/07/23 06:24:07;;;;;;;7.57;5.77;;;;;;;;;;5072080;28;20254;-59
2023/07/23 06:26:33;;;;;;;8.33;6.20;;;;;;;;;;5072005;28;20657;-58
2023/07/23 06:28:59;;;;;;;8.10;6.13;;;;;;;;;;5071810;28;20200;-58
2023/07/23 06:31:26;;;;;;;9.43;6.17;;;;;;;;;;5071874;28;20268;-58
2023/07/23 06:33:52;;;;;;;8.93;6.10;;;;;;;;;;5071781;28;20219;-58
2023/07/23 06:36:18;;;;;;;6.50;5.80;;;;;;;;;;5071715;28;20700;-58
2023/07/23 06:38:45;;;;;;;8.03;5.63;;;;;;;;;;5071568;28;20253;-58
2023/07/23 06:41:11;;;;;;;8.53;6.80;;;;;;;;;;5071987;28;20282;-58
2023/07/23 06:43:37;;;;;;;10.90;5.77;;;;;;;;;;5071440;28;20239;-58
2023/07/23 06:46:03;;;;;;;6.53;5.20;;;;;;;;;;5071442;28;20288;-58
2023/07/23 06:48:30;;;;;;;9.50;5.67;;;;;;;;;;5071428;28;20210;-57
2023/07/23 06:50:57;;;;;;;11.43;5.83;;;;;;;;;;5071492;28;20207;-57
2023/07/23 06:53:23;;;;;;;6.33;5.30;;;;;;;;;;5071598;28;20204;-58
2023/07/23 06:55:59;;;;;;;7.57;5.20;;;;;;;;;;5071545;28;20244;-57
2023/07/23 06:58:26;;;;;;;10.07;6.17;;;;;;;;;;5071676;28;20205;-57
2023/07/23 07:00:52;;;;;;;7.67;5.40;;;;;;;;;;5071488;28;20225;-58
2023/07/23 07:03:18;;;;;;;5.97;5.37;;;;;;;;;;5071500;28;20269;-57
2023/07/23 07:05:46;;;;;;;8.30;5.60;;;;;;;;;;5071126;28;20731;-57
2023/07/23 07:08:12;;;;;;;9.30;5.63;;;;;;;;;;5071382;28;20204;-57
2023/07/23 07:10:38;;;;;;;7.70;5.30;;;;;;;;;;5071514;28;20551;-58
2023/07/23 07:13:04;;;;;;;5.63;4.93;;;;;;;;;;5071300;28;20218;-58
2023/07/23 07:15:30;;;;;;;8.23;5.77;;;;;;;;;;5071196;28;20188;-59
2023/07/23 07:17:56;;;;;;;5.87;5.27;;;;;;;;;;5071353;28;20286;-58
2023/07/23 07:20:22;;;;;;;6.50;5.40;;;;;;;;;;5071409;28;20283;-58
2023/07/23 07:22:49;;;;;;;5.80;4.80;;;;;;;;;;5071176;28;20230;-58
2023/07/23 07:25:15;;;;;;;4.73;4.23;;;;;;;;;;5071214;28;20636;-58
2023/07/23 07:27:41;;;;;;;8.10;5.40;;;;;;;;;;5071307;28;20249;-58
2023/07/23 07:30:08;;;;;;;6.37;5.10;;;;;;;;;;5071400;28;20591;-58
2023/07/23 07:32:35;;;;;;;8.27;4.80;;;;;;;;;;5071176;28;20204;-59
2023/07/23 07:35:02;;;;;;;6.10;4.87;;;;;;;;;;5071273;28;20203;-59
2023/07/23 07:37:28;;;;;;;7.30;4.63;;;;;;;;;;5071162;28;20199;-59
2023/07/23 07:39:55;;;;;;;6.83;4.70;;;;;;;;;;5071164;28;20195;-59
2023/07/23 07:42:21;;;;;;;6.53;4.73;;;;;;;;;;5071291;28;20293;-59
2023/07/23 07:44:47;;;;;;;6.43;4.60;;;;;;;;;;5073091;28;20270;-58
2023/07/23 07:47:15;;;;;;;6.47;4.50;;;;;;;;;;5075041;28;20222;-58
2023/07/23 07:49:41;;;;;;;7.40;5.00;;;;;;;;;;5074955;28;20681;-57
2023/07/23 07:52:07;;;;;;;10.27;4.90;;;;;;;;;;5074904;28;20196;-58
2023/07/23 07:54:33;;;;;;;5.30;4.80;;;;;;;;;;5074861;28;20192;-58
2023/07/23 07:57:01;;;;;;;5.93;4.67;;;;;;;;;;5074640;28;20195;-58
2023/07/23 07:59:27;;;;;;;6.20;4.40;;;;;;;;;;5074913;28;20205;-58
2023/07/23 08:01:54;;;;;;;5.10;4.60;;;;;;;;;;5074600;28;20196;-58
2023/07/23 08:04:20;;;;;;;5.97;4.60;;;;;;;;;;5074622;28;20316;-58
2023/07/23 08:06:46;;;;;;;5.10;4.60;;;;;;;;;;5074459;28;20258;-58
2023/07/23 08:09:13;;;;;;;4.83;4.33;;;;;;;;;;5074383;28;20193;-58
2023/07/23 08:11:39;;;;;;;5.03;4.53;;;;;;;;;;5074535;28;20227;-58
2023/07/23 08:14:07;;;;;;;4.83;4.33;;;;;;;;;;5074325;28;20201;-58
2023/07/23 08:16:33;;;;;;;4.57;4.10;;;;;;;;;;5074274;28;20293;-58
2023/07/23 08:19:00;;;;;;;5.73;4.33;;;;;;;;;;5074239;28;20666;-57
2023/07/23 08:21:26;;;;;;;6.30;4.37;;;;;;;;;;5074408;28;20205;-58
2023/07/23 08:23:52;;;;;;;5.17;4.10;;;;;;;;;;5074315;28;20290;-58
2023/07/23 08:26:20;;;;;;;7.00;4.70;;;;;;;;;;5074313;28;20226;-57
2023/07/23 08:28:51;;;;;;;4.57;4.10;;;;;;;;;;5073934;28;20225;-59
2023/07/23 08:31:18;;;;;;;5.13;3.80;;;;;;;;;;5074143;28;20294;-58
2023/07/23 08:33:48;;;;;;;6.17;3.90;;;;;;;;;;5074009;28;20209;-59
2023/07/23 08:36:16;;;;;;;6.93;3.83;;;;;;;;;;5074168;28;20220;-58
2023/07/23 08:38:42;;;;;;;6.43;4.00;;;;;;;;;;5074039;28;20285;-58
2023/07/23 08:41:23;;;;;;;4.53;3.73;;;;;;;;;;5074411;28;20230;-58
2023/07/23 08:44:04;;;;;;;4.97;3.97;;;;;;;;;;5073601;28;20288;-59
2023/07/23 08:46:32;;;;;;;5.83;4.03;;;;;;;;;;5071406;28;20657;-59
2023/07/23 08:49:03;;;;;;;4.50;3.77;;;;;;;;;;5073933;28;20253;-59
2023/07/23 08:51:31;;;;;;;7.63;4.07;;;;;;;;;;5073777;28;20206;-57
2023/07/23 08:53:58;;;;;;;4.27;3.67;;;;;;;;;;5073772;28;20234;-59
2023/07/23 08:56:24;;;;;;;5.40;3.60;;;;;;;;;;5072689;28;20204;-59
2023/07/23 08:58:50;;;;;;;4.77;3.23;;;;;;;;;;5073692;28;20233;-58
2023/07/23 09:01:17;;;;;;;4.13;3.70;;;;;;;;;;5073676;28;20200;-58
2023/07/23 09:03:44;;;;;;;4.97;3.50;;;;;;;;;;5073571;28;20203;-58
2023/07/23 09:06:10;;;;;;;4.63;3.60;;;;;;;;;;5073594;28;20230;-58
2023/07/23 09:08:36;;;;;;;8.27;3.93;;;;;;;;;;5073514;28;20683;-58
2023/07/23 09:11:04;;;;;;;3.97;3.33;;;;;;;;;;5073386;28;20252;-57
2023/07/23 09:13:32;;;;;;;6.23;3.70;;;;;;;;;;5073426;28;20214;-58
2023/07/23 09:15:58;;;;;;;3.63;3.33;;;;;;;;;;5073594;28;20195;-58
2023/07/23 09:18:25;;;;;;;5.63;3.37;;;;;;;;;;5073505;28;20238;-58
2023/07/23 09:20:52;;;;;;;6.60;3.73;;;;;;;;;;5073224;28;20207;-57
2023/07/23 09:23:18;;;;;;;4.00;3.20;;;;;;;;;;5073207;28;20200;-57
2023/07/23 09:25:44;;;;;;;5.80;3.50;;;;;;;;;;5072985;28;20245;-57
2023/07/23 09:28:20;;;;;;;5.53;3.40;;;;;;;;;;5073200;28;20206;-57
2023/07/23 09:30:46;;;;;;;3.93;3.30;;;;;;;;;;5073011;28;20195;-58
2023/07/23 09:33:12;;;;;;;6.43;3.17;;;;;;;;;;5073117;28;20191;-58
2023/07/23 09:35:41;;;;;;;4.27;2.90;;;;;;;;;;5073091;28;20219;-58
2023/07/23 09:38:12;;;;;;;3.40;3.10;;;;;;;;;;5073004;28;20218;-58
2023/07/23 09:40:38;;;;;;;3.70;3.20;;;;;;;;;;5073085;28;20196;-58
2023/07/23 09:43:05;;;;;;;7.43;3.40;;;;;;;;;;5072539;28;20231;-58
2023/07/23 09:45:31;;;;;;;3.80;3.10;;;;;;;;;;5072565;28;20845;-58
2023/07/23 09:47:58;;;;;;;7.37;3.40;;;;;;;;;;5072589;28;20195;-58
2023/07/23 09:50:24;;;;;;;8.83;3.27;;;;;;;;;;5072768;28;20274;-58
2023/07/23 09:52:50;;;;;;;3.77;3.47;;;;;;;;;;5072592;28;20195;-58
2023/07/23 09:55:18;;;;;;;4.17;2.97;;;;;;;;;;5072357;28;20291;-59
2023/07/23 09:57:45;;;;;;;4.70;3.20;;;;;;;;;;5072422;28;20199;-58
2023/07/23 10:00:13;;;;;;;5.87;3.20;;;;;;;;;;5072593;28;20206;-59
2023/07/23 10:02:40;;;;;;;3.60;3.00;;;;;;;;;;5072626;28;20690;-59
2023/07/23 10:05:07;;;;;;;5.30;3.10;;;;;;;;;;5072259;28;20250;-59
2023/07/23 10:07:33;;;;;;;5.63;3.37;;;;;;;;;;5072033;28;20676;-59
2023/07/23 10:09:59;;;;;;;4.07;3.10;;;;;;;;;;5072485;28;20218;-59
2023/07/23 10:12:27;;;;;;;3.50;3.20;;;;;;;;;;5072462;28;20692;-59
2023/07/23 10:14:53;;;;;;;5.07;3.00;;;;;;;;;;5072176;28;20207;-59
2023/07/23 10:17:19;;;;;;;5.10;3.13;;;;;;;;;;5072120;28;20565;-59
2023/07/23 10:19:45;;;;;;;4.47;3.43;;;;;;;;;;5071929;28;20198;-59
2023/07/23 10:22:12;;;;;;;4.77;3.30;;;;;;;;;;5072311;28;20195;-60
2023/07/23 10:24:38;;;;;;;3.23;2.93;;;;;;;;;;5072086;28;20222;-59
2023/07/23 10:27:10;;;;;;;5.83;3.33;;;;;;;;;;5071808;28;20199;-59
2023/07/23 10:29:40;;;;;;;5.50;3.23;;;;;;;;;;5071992;28;20202;-59
2023/07/23 10:32:23;;;;;;;3.00;2.80;;;;;;;;;;5071895;28;20206;-60
2023/07/23 10:34:49;;;;;;;4.23;2.97;;;;;;;;;;5071745;28;20211;-58
2023/07/23 10:37:18;;;;;;;4.70;3.37;;;;;;;;;;5071708;28;20293;-59
2023/07/23 10:39:45;;;;;;;5.30;3.57;;;;;;;;;;5071641;28;20223;-59
2023/07/23 10:42:31;;;;;;;4.27;3.60;;;;;;;;;;5071860;28;20199;-59
2023/07/23 10:45:12;;;;;;;6.27;3.30;;;;;;;;;;5071560;28;20219;-59
2023/07/23 10:47:40;;;;;;;5.67;3.77;;;;;;;;;;5071904;28;20230;-60
2023/07/23 10:50:09;;;;;;;5.40;3.57;;;;;;;;;;5071624;28;20207;-57
2023/07/23 10:52:35;;;;;;;3.93;3.27;;;;;;;;;;5071785;28;20657;-57
2023/07/23 10:55:02;;;;;;;5.93;3.50;;;;;;;;;;5071408;28;20287;-58
2023/07/23 10:57:29;;;;;;;5.17;3.80;;;;;;;;;;5071380;28;20683;-56
2023/07/23 10:59:55;;;;;;;6.73;4.00;;;;;;;;;;5071496;28;20202;-56
2023/07/23 11:02:25;;;;;;;4.10;3.67;;;;;;;;;;5071626;28;20229;-55
2023/07/23 11:04:55;;;;;;;6.33;3.93;;;;;;;;;;5071210;28;20229;-57
2023/07/23 11:07:26;;;;;;;4.30;3.90;;;;;;;;;;5071602;28;20200;-55
2023/07/23 11:09:54;;;;;;;5.80;4.13;;;;;;;;;;5071424;28;20732;-55
2023/07/23 11:12:22;;;;;;;4.10;3.63;;;;;;;;;;5071442;28;20222;-58
2023/07/23 11:14:48;;;;;;;5.90;3.80;;;;;;;;;;5071198;28;20221;-56
2023/07/23 11:17:14;;;;;;;4.60;4.20;;;;;;;;;;5071457;28;20198;-56
2023/07/23 11:19:46;;;;;;;5.83;3.83;;;;;;;;;;5070728;28;20198;-57
2023/07/23 11:22:13;;;;;;;6.77;4.33;;;;;;;;;;5071318;28;20730;-56
2023/07/23 11:24:40;;;;;;;4.20;3.60;;;;;;;;;;5071432;28;20318;-57
2023/07/23 11:27:06;;;;;;;4.57;3.73;;;;;;;;;;5071160;28;20259;-57
2023/07/23 11:29:36;;;;;;;4.30;3.90;;;;;;;;;;5071195;28;20202;-58
2023/07/23 11:32:03;;;;;;;6.60;3.87;;;;;;;;;;5071088;28;20660;-58
2023/07/23 11:34:29;;;;;;;4.47;3.70;;;;;;;;;;5071144;28;20196;-58
2023/07/23 11:36:55;;;;;;;4.37;3.53;;;;;;;;;;5071257;28;20202;-59
2023/07/23 11:39:26;;;;;;;4.17;3.77;;;;;;;;;;5071063;28;20226;-59
2023/07/23 11:41:52;;;;;;;5.67;3.70;;;;;;;;;;5071001;28;20205;-59
2023/07/23 11:44:18;;;;;;;4.23;3.40;;;;;;;;;;5070859;28;20291;-59
2023/07/23 11:46:44;;;;;;;3.63;3.33;;;;;;;;;;5071100;28;20211;-59
2023/07/23 11:49:11;;;;;;;3.20;2.80;;;;;;;;;;5071162;28;20221;-58
2023/07/23 11:51:37;;;;;;;5.13;3.00;;;;;;;;;;5071166;28;20289;-58
2023/07/23 11:54:08;;;;;;;3.30;2.47;;;;;;;;;;5070923;28;20561;-59
2023/07/23 11:56:37;;;;;;;4.23;2.87;;;;;;;;;;5071113;28;20251;-59
2023/07/23 11:59:03;;;;;;;5.33;2.63;;;;;;;;;;5070791;28;20206;-59
2023/07/23 12:01:29;;;;;;;4.47;2.83;;;;;;;;;;5070944;28;20222;-59
2023/07/23 12:03:58;;;;;;;2.93;2.47;;;;;;;;;;5070936;28;20199;-59
2023/07/23 12:06:24;;;;;;;4.10;2.27;;;;;;;;;;5070817;28;20579;-59
2023/07/23 12:08:51;;;;;;;3.13;2.83;;;;;;;;;;5070657;28;20203;-58
2023/07/23 12:11:17;;;;;;;4.30;2.70;;;;;;;;;;5070707;28;20658;-60
2023/07/23 12:13:46;;;;;;;3.23;2.60;;;;;;;;;;5070656;28;20712;-60
2023/07/23 12:16:13;;;;;;;3.80;2.73;;;;;;;;;;5070636;28;20226;-58
2023/07/23 12:18:43;;;;;;;3.27;2.60;;;;;;;;;;5070971;28;20279;-57
2023/07/23 12:21:09;;;;;;;3.33;2.60;;;;;;;;;;5070808;28;20250;-59
2023/07/23 12:23:40;;;;;;;4.13;2.70;;;;;;;;;;5070747;28;20227;-57
2023/07/23 12:26:09;;;;;;;3.97;3.03;;;;;;;;;;5070561;28;20706;-58
2023/07/23 12:28:35;;;;;;;4.80;2.50;;;;;;;;;;5070613;28;20715;-58
2023/07/23 12:31:02;;;;;;;2.80;2.60;;;;;;;;;;5072565;28;20514;-58
2023/07/23 12:33:28;;;;;;;4.70;3.07;;;;;;;;;;5074222;28;20578;-58
2023/07/23 12:35:54;;;;;;;3.33;2.53;;;;;;;;;;5074165;28;20202;-58
2023/07/23 12:38:20;;;;;;;3.00;2.70;;;;;;;;;;5073880;28;20195;-58
2023/07/23 12:40:46;;;;;;;3.10;2.63;;;;;;;;;;5073964;28;20276;-59
2023/07/23 12:43:12;;;;;;;3.90;2.93;;;;;;;;;;5073796;28;20292;-59
2023/07/23 12:45:38;;;;;;;3.07;2.43;;;;;;;;;;5074018;28;20234;-59
2023/07/23 12:48:06;;;;;;;2.60;2.40;;;;;;;;;;5073838;28;20196;-59
2023/07/23 12:50:33;;;;;;;2.40;2.20;;;;;;;;;;5073780;28;20203;-59
2023/07/23 12:53:00;;;;;;;3.20;2.63;;;;;;;;;;5073686;28;20287;-59
2023/07/23 12:55:26;;;;;;;3.07;2.30;;;;;;;;;;5073931;28;20195;-59
2023/07/23 12:57:52;;;;;;;3.27;2.00;;;;;;;;;;5073749;28;20245;-59
2023/07/23 13:00:18;;;;;;;2.87;1.80;;;;;;;;;;5073691;28;20235;-59
2023/07/23 13:02:45;;;;;;;3.20;2.03;;;;;;;;;;5073552;28;20195;-59
2023/07/23 13:05:12;;;;;;;1.67;1.57;;;;;;;;;;5073518;28;20226;-59
2023/07/23 13:07:39;;;;;;;1.93;1.67;;;;;;;;;;5073716;28;20200;-59
2023/07/23 13:10:06;;;;;;;2.07;1.70;;;;;;;;;;5073357;28;20236;-59
2023/07/23 13:12:32;;;;;;;2.43;1.80;;;;;;;;;;5073435;28;20200;-60
2023/07/23 13:14:58;;;;;;;1.80;1.70;;;;;;;;;;5073215;28;20576;-59
2023/07/23 13:17:24;;;;;;;3.53;1.97;;;;;;;;;;5073310;28;20666;-60
2023/07/23 13:19:50;;;;;;;2.83;1.90;;;;;;;;;;5073268;28;20454;-60
2023/07/23 13:22:17;;;;;;;2.00;1.60;;;;;;;;;;5073278;28;20286;-59
2023/07/23 13:24:43;;;;;;;2.37;1.90;;;;;;;;;;5073202;28;20273;-60
2023/07/23 13:27:09;;;;;;;1.67;1.57;;;;;;;;;;5073260;28;20196;-59
2023/07/23 13:29:35;;;;;;;2.07;1.70;;;;;;;;;;5073188;28;20195;-59
2023/07/23 13:32:01;;;;;;;1.93;1.60;;;;;;;;;;5073042;28;20205;-60
2023/07/23 13:34:27;;;;;;;2.87;1.60;;;;;;;;;;5073105;28;20195;-59
2023/07/23 13:36:53;;;;;;;2.57;1.77;;;;;;;;;;5073078;28;20194;-59
2023/07/23 13:39:21;;;;;;;1.97;1.77;;;;;;;;;;5072933;28;20201;-59
2023/07/23 13:41:47;;;;;;;2.13;1.93;;;;;;;;;;5072157;28;20298;-59
2023/07/23 13:44:13;;;;;;;2.70;1.90;;;;;;;;;;5072445;28;20266;-58
2023/07/23 13:46:39;;;;;;;3.93;2.00;;;;;;;;;;5072804;28;20192;-58
2023/07/23 13:49:05;;;;;;;1.80;1.70;;;;;;;;;;5072495;28;20230;-60
2023/07/23 13:51:31;;;;;;;4.07;1.90;;;;;;;;;;5072655;28;20197;-57
2023/07/23 13:53:57;;;;;;;2.33;1.63;;;;;;;;;;5072684;28;20210;-58
2023/07/23 13:56:24;;;;;;;2.10;1.70;;;;;;;;;;5072833;28;20299;-58
2023/07/23 13:58:50;;;;;;;2.10;1.83;;;;;;;;;;5072463;28;20298;-58
2023/07/23 14:01:16;;;;;;;2.00;1.70;;;;;;;;;;5072472;28;20194;-57
2023/07/23 14:03:42;;;;;;;1.93;1.60;;;;;;;;;;5072506;28;20202;-56
2023/07/23 14:06:09;;;;;;;2.07;1.70;;;;;;;;;;5072288;28;20226;-56
2023/07/23 14:08:35;;;;;;;2.50;1.90;;;;;;;;;;5072293;28;20567;-55
2023/07/23 14:11:00;;;;;;;1.80;1.70;;;;;;;;;;5072153;28;20506;-56
2023/07/23 14:13:28;;;;;;;2.53;2.10;;;;;;;;;;5072390;28;20194;-56
2023/07/23 14:15:54;;;;;;;3.83;2.00;;;;;;;;;;5072197;28;20210;-57
2023/07/23 14:18:20;;;;;;;4.03;2.17;;;;;;;;;;5072162;28;20198;-57
2023/07/23 14:20:46;;;;;;;2.40;2.17;;;;;;;;;;5072052;28;20262;-57
2023/07/23 14:23:13;;;;;;;2.30;2.10;;;;;;;;;;5071939;28;20671;-58
2023/07/23 14:25:39;;;;;;;2.20;2.00;;;;;;;;;;5072206;28;20221;-57
2023/07/23 14:28:05;;;;;;;2.53;1.90;;;;;;;;;;5072111;28;20537;-57
2023/07/23 14:30:32;;;;;;;2.30;2.10;;;;;;;;;;5071816;28;20206;-58
2023/07/23 14:32:58;;;;;;;1.80;1.70;;;;;;;;;;5071724;28;20254;-58
2023/07/23 14:35:27;;;;;;;3.20;1.60;;;;;;;;;;5072082;28;20272;-58